sensor_id;sensor_type;location;lat;lon;timestamp;P1;durP1;ratioP1;P2;durP2;ratioP2
70757;SDS011;59316;52.964;7.102;2022-10-26T00:03:23;40.30;;;12.25;;
70757;SDS011;59316;52.964;7.102;2022-10-26T00:08:25;42.83;;;12.48;;
70757;SDS011;59316;52.964;7.102;2022-10-26T00:13:27;31.13;;;11.40;;
70757;SDS011;59316;52.964;7.102;2022-10-26T00:18:30;41.33;;;12.95;;
70757;SDS011;59316;52.964;7.102;2022-10-26T00:23:32;36.50;;;11.38;;
70757;SDS011;59316;52.964;7.102;2022-10-26T00:28:35;29.65;;;11.15;;
70757;SDS011;59316;52.964;7.102;2022-10-26T00:33:38;33.95;;;11.77;;
70757;SDS011;59316;52.964;7.102;2022-10-26T00:38:41;40.13;;;12.00;;
70757;SDS011;59316;52.964;7.102;2022-10-26T00:43:43;33.97;;;11.68;;
70757;SDS011;59316;52.964;7.102;2022-10-26T00:48:47;53.43;;;13.57;;
70757;SDS011;59316;52.964;7.102;2022-10-26T00:53:52;42.90;;;13.10;;
70757;SDS011;59316;52.964;7.102;2022-10-26T00:58:56;42.45;;;13.10;;
70757;SDS011;59316;52.964;7.102;2022-10-26T01:04:05;56.28;;;13.40;;
70757;SDS011;59316;52.964;7.102;2022-10-26T01:09:08;50.90;;;13.87;;
70757;SDS011;59316;52.964;7.102;2022-10-26T01:14:12;49.60;;;14.65;;
70757;SDS011;59316;52.964;7.102;2022-10-26T01:24:33;38.42;;;12.52;;
70757;SDS011;59316;52.964;7.102;2022-10-26T01:35:31;47.45;;;13.82;;
70757;SDS011;59316;52.964;7.102;2022-10-26T01:40:41;39.20;;;13.35;;
70757;SDS011;59316;52.964;7.102;2022-10-26T01:45:47;35.40;;;12.63;;
70757;SDS011;59316;52.964;7.102;2022-10-26T01:50:53;37.30;;;13.98;;
70757;SDS011;59316;52.964;7.102;2022-10-26T01:55:57;39.00;;;13.02;;
70757;SDS011;59316;52.964;7.102;2022-10-26T02:06:16;42.90;;;13.45;;
70757;SDS011;59316;52.964;7.102;2022-10-26T02:11:33;47.92;;;14.75;;
70757;SDS011;59316;52.964;7.102;2022-10-26T02:17:24;35.83;;;14.45;;
70757;SDS011;59316;52.964;7.102;2022-10-26T02:22:14;39.03;;;15.30;;
70757;SDS011;59316;52.964;7.102;2022-10-26T02:27:21;50.88;;;16.30;;
70757;SDS011;59316;52.964;7.102;2022-10-26T02:32:32;53.80;;;16.73;;
70757;SDS011;59316;52.964;7.102;2022-10-26T02:37:38;66.05;;;17.20;;
70757;SDS011;59316;52.964;7.102;2022-10-26T02:42:43;67.55;;;17.42;;
70757;SDS011;59316;52.964;7.102;2022-10-26T02:47:47;79.65;;;18.73;;
70757;SDS011;59316;52.964;7.102;2022-10-26T02:58:11;67.68;;;18.20;;
70757;SDS011;59316;52.964;7.102;2022-10-26T03:03:20;81.40;;;18.42;;
70757;SDS011;59316;52.964;7.102;2022-10-26T03:08:23;74.13;;;18.20;;
70757;SDS011;59316;52.964;7.102;2022-10-26T03:13:30;73.15;;;17.60;;
70757;SDS011;59316;52.964;7.102;2022-10-26T03:18:36;71.40;;;18.98;;
70757;SDS011;59316;52.964;7.102;2022-10-26T03:23:38;79.80;;;18.33;;
70757;SDS011;59316;52.964;7.102;2022-10-26T03:28:40;93.53;;;19.92;;
70757;SDS011;59316;52.964;7.102;2022-10-26T03:33:42;77.00;;;18.65;;
70757;SDS011;59316;52.964;7.102;2022-10-26T03:38:45;73.05;;;19.38;;
70757;SDS011;59316;52.964;7.102;2022-10-26T03:43:47;86.82;;;19.65;;
70757;SDS011;59316;52.964;7.102;2022-10-26T03:48:49;97.57;;;20.45;;
70757;SDS011;59316;52.964;7.102;2022-10-26T03:53:51;94.38;;;19.08;;
70757;SDS011;59316;52.964;7.102;2022-10-26T03:58:53;100.75;;;19.25;;
70757;SDS011;59316;52.964;7.102;2022-10-26T04:03:55;81.57;;;17.80;;
70757;SDS011;59316;52.964;7.102;2022-10-26T04:08:57;78.70;;;18.00;;
70757;SDS011;59316;52.964;7.102;2022-10-26T04:13:59;77.63;;;17.20;;
70757;SDS011;59316;52.964;7.102;2022-10-26T04:19:02;92.35;;;20.27;;
70757;SDS011;59316;52.964;7.102;2022-10-26T04:24:04;91.75;;;19.63;;
70757;SDS011;59316;52.964;7.102;2022-10-26T04:29:06;89.07;;;20.50;;
70757;SDS011;59316;52.964;7.102;2022-10-26T04:34:08;113.68;;;22.10;;
70757;SDS011;59316;52.964;7.102;2022-10-26T04:39:10;110.63;;;20.42;;
70757;SDS011;59316;52.964;7.102;2022-10-26T04:44:12;98.50;;;19.92;;
70757;SDS011;59316;52.964;7.102;2022-10-26T04:49:15;109.53;;;21.38;;
70757;SDS011;59316;52.964;7.102;2022-10-26T04:54:17;91.72;;;21.38;;
70757;SDS011;59316;52.964;7.102;2022-10-26T04:59:19;114.68;;;22.85;;
70757;SDS011;59316;52.964;7.102;2022-10-26T05:04:21;90.95;;;22.05;;
70757;SDS011;59316;52.964;7.102;2022-10-26T05:09:23;96.38;;;22.60;;
70757;SDS011;59316;52.964;7.102;2022-10-26T05:14:25;88.63;;;21.85;;
70757;SDS011;59316;52.964;7.102;2022-10-26T05:19:27;100.13;;;21.35;;
70757;SDS011;59316;52.964;7.102;2022-10-26T05:24:29;77.82;;;20.20;;
70757;SDS011;59316;52.964;7.102;2022-10-26T05:29:32;84.78;;;19.10;;
70757;SDS011;59316;52.964;7.102;2022-10-26T05:34:34;83.85;;;19.65;;
70757;SDS011;59316;52.964;7.102;2022-10-26T05:39:41;80.43;;;18.23;;
70757;SDS011;59316;52.964;7.102;2022-10-26T05:44:43;81.03;;;19.30;;
70757;SDS011;59316;52.964;7.102;2022-10-26T05:49:45;92.53;;;19.75;;
70757;SDS011;59316;52.964;7.102;2022-10-26T05:54:47;91.30;;;22.48;;
70757;SDS011;59316;52.964;7.102;2022-10-26T05:59:50;105.32;;;22.52;;
70757;SDS011;59316;52.964;7.102;2022-10-26T06:04:52;94.50;;;22.50;;
70757;SDS011;59316;52.964;7.102;2022-10-26T06:09:57;93.43;;;21.63;;
70757;SDS011;59316;52.964;7.102;2022-10-26T06:14:59;108.22;;;21.65;;
70757;SDS011;59316;52.964;7.102;2022-10-26T06:30:56;89.85;;;20.25;;
70757;SDS011;59316;52.964;7.102;2022-10-26T06:41:06;79.28;;;19.48;;
70757;SDS011;59316;52.964;7.102;2022-10-26T06:51:11;80.80;;;18.55;;
70757;SDS011;59316;52.964;7.102;2022-10-26T06:56:16;74.30;;;17.60;;
70757;SDS011;59316;52.964;7.102;2022-10-26T07:01:18;54.25;;;16.50;;
70757;SDS011;59316;52.964;7.102;2022-10-26T07:06:21;51.63;;;14.73;;
70757;SDS011;59316;52.964;7.102;2022-10-26T07:11:23;52.17;;;14.77;;
70757;SDS011;59316;52.964;7.102;2022-10-26T07:16:25;56.42;;;15.35;;
70757;SDS011;59316;52.964;7.102;2022-10-26T07:21:27;48.80;;;14.27;;
70757;SDS011;59316;52.964;7.102;2022-10-26T07:26:29;46.53;;;14.07;;
70757;SDS011;59316;52.964;7.102;2022-10-26T07:31:31;37.15;;;13.02;;
70757;SDS011;59316;52.964;7.102;2022-10-26T07:36:33;46.65;;;13.18;;
70757;SDS011;59316;52.964;7.102;2022-10-26T07:41:36;38.22;;;12.70;;
70757;SDS011;59316;52.964;7.102;2022-10-26T07:46:38;44.28;;;14.35;;
70757;SDS011;59316;52.964;7.102;2022-10-26T07:51:40;38.55;;;13.75;;
70757;SDS011;59316;52.964;7.102;2022-10-26T07:56:42;44.30;;;13.63;;
70757;SDS011;59316;52.964;7.102;2022-10-26T08:01:44;47.30;;;13.82;;
70757;SDS011;59316;52.964;7.102;2022-10-26T08:06:46;42.80;;;13.57;;
70757;SDS011;59316;52.964;7.102;2022-10-26T08:11:51;38.13;;;13.27;;
70757;SDS011;59316;52.964;7.102;2022-10-26T08:16:53;36.50;;;12.27;;
70757;SDS011;59316;52.964;7.102;2022-10-26T08:21:56;34.13;;;12.38;;
70757;SDS011;59316;52.964;7.102;2022-10-26T08:26:58;31.98;;;12.23;;
70757;SDS011;59316;52.964;7.102;2022-10-26T08:32:00;37.35;;;12.32;;
70757;SDS011;59316;52.964;7.102;2022-10-26T08:37:02;32.10;;;11.32;;
70757;SDS011;59316;52.964;7.102;2022-10-26T08:42:16;26.70;;;10.77;;
70757;SDS011;59316;52.964;7.102;2022-10-26T08:47:31;21.77;;;9.63;;
70757;SDS011;59316;52.964;7.102;2022-10-26T08:53:07;19.10;;;8.43;;
70757;SDS011;59316;52.964;7.102;2022-10-26T08:58:23;20.58;;;8.73;;
70757;SDS011;59316;52.964;7.102;2022-10-26T09:03:32;14.82;;;7.13;;
70757;SDS011;59316;52.964;7.102;2022-10-26T09:08:41;11.87;;;6.47;;
70757;SDS011;59316;52.964;7.102;2022-10-26T09:19:22;11.18;;;5.57;;
70757;SDS011;59316;52.964;7.102;2022-10-26T09:24:55;10.60;;;5.35;;
70757;SDS011;59316;52.964;7.102;2022-10-26T09:30:14;13.98;;;4.10;;
70757;SDS011;59316;52.964;7.102;2022-10-26T09:35:26;5.80;;;3.33;;
70757;SDS011;59316;52.964;7.102;2022-10-26T09:45:52;4.05;;;2.67;;
70757;SDS011;59316;52.964;7.102;2022-10-26T09:50:54;5.45;;;2.85;;
70757;SDS011;59316;52.964;7.102;2022-10-26T09:56:08;3.85;;;2.35;;
70757;SDS011;59316;52.964;7.102;2022-10-26T10:06:28;3.97;;;2.22;;
70757;SDS011;59316;52.964;7.102;2022-10-26T10:11:40;4.43;;;2.33;;
70757;SDS011;59316;52.964;7.102;2022-10-26T10:17:19;4.22;;;2.17;;
70757;SDS011;59316;52.964;7.102;2022-10-26T10:22:24;2.83;;;2.15;;
70757;SDS011;59316;52.964;7.102;2022-10-26T10:27:27;9.52;;;2.60;;
70757;SDS011;59316;52.964;7.102;2022-10-26T10:32:31;5.18;;;2.42;;
70757;SDS011;59316;52.964;7.102;2022-10-26T10:37:40;3.97;;;2.33;;
70757;SDS011;59316;52.964;7.102;2022-10-26T10:42:44;6.00;;;2.10;;
70757;SDS011;59316;52.964;7.102;2022-10-26T10:48:01;7.65;;;1.92;;
70757;SDS011;59316;52.964;7.102;2022-10-26T10:53:15;5.65;;;1.90;;
70757;SDS011;59316;52.964;7.102;2022-10-26T10:58:30;7.72;;;2.13;;
70757;SDS011;59316;52.964;7.102;2022-10-26T11:19:37;4.13;;;1.70;;
70757;SDS011;59316;52.964;7.102;2022-10-26T11:25:06;6.40;;;2.00;;
70757;SDS011;59316;52.964;7.102;2022-10-26T11:30:14;3.55;;;1.80;;
70757;SDS011;59316;52.964;7.102;2022-10-26T11:35:27;6.75;;;1.90;;
70757;SDS011;59316;52.964;7.102;2022-10-26T11:45:56;7.05;;;1.85;;
70757;SDS011;59316;52.964;7.102;2022-10-26T11:51:15;5.60;;;2.37;;
70757;SDS011;59316;52.964;7.102;2022-10-26T11:56:29;4.15;;;2.10;;
70757;SDS011;59316;52.964;7.102;2022-10-26T12:01:35;4.32;;;2.00;;
70757;SDS011;59316;52.964;7.102;2022-10-26T12:11:57;3.25;;;1.85;;
70757;SDS011;59316;52.964;7.102;2022-10-26T12:17:18;5.55;;;2.05;;
70757;SDS011;59316;52.964;7.102;2022-10-26T12:22:31;4.82;;;2.30;;
70757;SDS011;59316;52.964;7.102;2022-10-26T12:37:44;3.67;;;2.10;;
70757;SDS011;59316;52.964;7.102;2022-10-26T12:42:46;3.90;;;2.22;;
70757;SDS011;59316;52.964;7.102;2022-10-26T12:52:57;8.48;;;2.30;;
70757;SDS011;59316;52.964;7.102;2022-10-26T13:08:27;7.13;;;2.17;;
70757;SDS011;59316;52.964;7.102;2022-10-26T13:13:39;5.43;;;2.00;;
70757;SDS011;59316;52.964;7.102;2022-10-26T13:18:43;3.50;;;2.00;;
70757;SDS011;59316;52.964;7.102;2022-10-26T13:23:54;4.07;;;1.98;;
70757;SDS011;59316;52.964;7.102;2022-10-26T13:28:59;6.97;;;2.20;;
70757;SDS011;59316;52.964;7.102;2022-10-26T13:34:08;7.18;;;1.80;;
70757;SDS011;59316;52.964;7.102;2022-10-26T13:39:22;11.23;;;2.50;;
70757;SDS011;59316;52.964;7.102;2022-10-26T13:44:36;6.22;;;2.53;;
70757;SDS011;59316;52.964;7.102;2022-10-26T13:49:44;7.38;;;2.63;;
70757;SDS011;59316;52.964;7.102;2022-10-26T13:54:52;7.35;;;2.35;;
70757;SDS011;59316;52.964;7.102;2022-10-26T13:59:56;8.27;;;2.63;;
70757;SDS011;59316;52.964;7.102;2022-10-26T14:05:13;5.03;;;2.47;;
70757;SDS011;59316;52.964;7.102;2022-10-26T14:10:25;4.75;;;2.22;;
70757;SDS011;59316;52.964;7.102;2022-10-26T14:15:30;9.23;;;2.75;;
70757;SDS011;59316;52.964;7.102;2022-10-26T14:20:34;5.40;;;2.97;;
70757;SDS011;59316;52.964;7.102;2022-10-26T14:25:36;6.50;;;3.00;;
70757;SDS011;59316;52.964;7.102;2022-10-26T14:30:49;8.45;;;2.70;;
70757;SDS011;59316;52.964;7.102;2022-10-26T14:35:51;6.22;;;2.78;;
70757;SDS011;59316;52.964;7.102;2022-10-26T14:40:57;6.68;;;3.40;;
70757;SDS011;59316;52.964;7.102;2022-10-26T14:46:03;8.75;;;2.70;;
70757;SDS011;59316;52.964;7.102;2022-10-26T14:56:19;9.45;;;3.20;;
70757;SDS011;59316;52.964;7.102;2022-10-26T15:01:25;7.57;;;2.90;;
70757;SDS011;59316;52.964;7.102;2022-10-26T15:06:41;8.48;;;3.67;;
70757;SDS011;59316;52.964;7.102;2022-10-26T15:16:54;7.78;;;3.70;;
70757;SDS011;59316;52.964;7.102;2022-10-26T15:21:58;11.93;;;4.25;;
70757;SDS011;59316;52.964;7.102;2022-10-26T15:27:00;10.20;;;4.90;;
70757;SDS011;59316;52.964;7.102;2022-10-26T15:37:11;13.63;;;4.97;;
70757;SDS011;59316;52.964;7.102;2022-10-26T15:42:14;11.85;;;4.72;;
70757;SDS011;59316;52.964;7.102;2022-10-26T15:47:17;12.52;;;4.97;;
70757;SDS011;59316;52.964;7.102;2022-10-26T15:52:19;7.25;;;4.60;;
70757;SDS011;59316;52.964;7.102;2022-10-26T15:57:22;16.60;;;4.43;;
70757;SDS011;59316;52.964;7.102;2022-10-26T16:02:27;13.05;;;4.80;;
70757;SDS011;59316;52.964;7.102;2022-10-26T16:07:29;11.85;;;5.80;;
70757;SDS011;59316;52.964;7.102;2022-10-26T16:12:32;12.10;;;5.28;;
70757;SDS011;59316;52.964;7.102;2022-10-26T16:17:34;13.98;;;5.78;;
70757;SDS011;59316;52.964;7.102;2022-10-26T16:22:36;15.10;;;5.57;;
70757;SDS011;59316;52.964;7.102;2022-10-26T16:27:39;13.10;;;5.20;;
70757;SDS011;59316;52.964;7.102;2022-10-26T16:32:42;11.02;;;5.65;;
70757;SDS011;59316;52.964;7.102;2022-10-26T16:37:44;11.18;;;5.38;;
70757;SDS011;59316;52.964;7.102;2022-10-26T16:42:47;11.32;;;6.38;;
70757;SDS011;59316;52.964;7.102;2022-10-26T16:47:50;12.50;;;6.70;;
70757;SDS011;59316;52.964;7.102;2022-10-26T16:52:52;9.75;;;6.53;;
70757;SDS011;59316;52.964;7.102;2022-10-26T16:57:55;10.65;;;6.68;;
70757;SDS011;59316;52.964;7.102;2022-10-26T17:02:57;12.35;;;7.43;;
70757;SDS011;59316;52.964;7.102;2022-10-26T17:08:00;11.82;;;7.38;;
70757;SDS011;59316;52.964;7.102;2022-10-26T17:13:02;12.43;;;7.15;;
70757;SDS011;59316;52.964;7.102;2022-10-26T17:18:05;13.73;;;7.20;;
70757;SDS011;59316;52.964;7.102;2022-10-26T17:23:07;13.50;;;8.27;;
70757;SDS011;59316;52.964;7.102;2022-10-26T17:28:10;12.17;;;7.83;;
70757;SDS011;59316;52.964;7.102;2022-10-26T17:33:13;10.98;;;8.02;;
70757;SDS011;59316;52.964;7.102;2022-10-26T17:38:15;13.50;;;8.32;;
70757;SDS011;59316;52.964;7.102;2022-10-26T17:43:18;15.45;;;8.68;;
70757;SDS011;59316;52.964;7.102;2022-10-26T17:48:20;15.33;;;9.53;;
70757;SDS011;59316;52.964;7.102;2022-10-26T17:53:23;17.98;;;10.50;;
70757;SDS011;59316;52.964;7.102;2022-10-26T17:58:25;23.40;;;12.13;;
70757;SDS011;59316;52.964;7.102;2022-10-26T18:03:28;22.40;;;12.13;;
70757;SDS011;59316;52.964;7.102;2022-10-26T18:08:31;17.67;;;12.15;;
70757;SDS011;59316;52.964;7.102;2022-10-26T18:13:34;18.98;;;11.73;;
70757;SDS011;59316;52.964;7.102;2022-10-26T18:18:36;23.37;;;13.83;;
70757;SDS011;59316;52.964;7.102;2022-10-26T18:28:42;23.05;;;13.23;;
70757;SDS011;59316;52.964;7.102;2022-10-26T18:33:45;26.58;;;14.85;;
70757;SDS011;59316;52.964;7.102;2022-10-26T18:38:47;23.75;;;14.05;;
70757;SDS011;59316;52.964;7.102;2022-10-26T18:43:53;37.15;;;16.92;;
70757;SDS011;59316;52.964;7.102;2022-10-26T18:48:57;28.00;;;16.77;;
70757;SDS011;59316;52.964;7.102;2022-10-26T18:54:00;26.15;;;15.90;;
70757;SDS011;59316;52.964;7.102;2022-10-26T18:59:02;26.92;;;15.80;;
70757;SDS011;59316;52.964;7.102;2022-10-26T19:04:06;32.47;;;16.83;;
70757;SDS011;59316;52.964;7.102;2022-10-26T19:09:10;28.63;;;16.63;;
70757;SDS011;59316;52.964;7.102;2022-10-26T19:14:12;31.60;;;17.00;;
70757;SDS011;59316;52.964;7.102;2022-10-26T19:19:15;45.27;;;20.40;;
70757;SDS011;59316;52.964;7.102;2022-10-26T19:24:19;34.92;;;18.63;;
70757;SDS011;59316;52.964;7.102;2022-10-26T19:29:23;36.22;;;18.42;;
70757;SDS011;59316;52.964;7.102;2022-10-26T19:34:25;37.27;;;18.43;;
70757;SDS011;59316;52.964;7.102;2022-10-26T19:39:28;28.77;;;15.90;;
70757;SDS011;59316;52.964;7.102;2022-10-26T19:44:30;34.57;;;18.27;;
70757;SDS011;59316;52.964;7.102;2022-10-26T19:49:32;34.50;;;16.93;;
70757;SDS011;59316;52.964;7.102;2022-10-26T19:54:35;29.47;;;16.10;;
70757;SDS011;59316;52.964;7.102;2022-10-26T19:59:37;25.50;;;14.53;;
70757;SDS011;59316;52.964;7.102;2022-10-26T20:04:40;23.10;;;14.87;;
70757;SDS011;59316;52.964;7.102;2022-10-26T20:09:42;23.10;;;13.90;;
70757;SDS011;59316;52.964;7.102;2022-10-26T20:14:45;29.90;;;14.18;;
70757;SDS011;59316;52.964;7.102;2022-10-26T20:19:47;23.60;;;13.33;;
70757;SDS011;59316;52.964;7.102;2022-10-26T20:24:49;23.80;;;14.77;;
70757;SDS011;59316;52.964;7.102;2022-10-26T20:29:52;23.60;;;13.18;;
70757;SDS011;59316;52.964;7.102;2022-10-26T20:34:54;26.70;;;13.53;;
70757;SDS011;59316;52.964;7.102;2022-10-26T20:39:57;20.13;;;12.27;;
70757;SDS011;59316;52.964;7.102;2022-10-26T20:45:02;20.70;;;11.88;;
70757;SDS011;59316;52.964;7.102;2022-10-26T20:50:09;22.92;;;11.88;;
70757;SDS011;59316;52.964;7.102;2022-10-26T21:00:19;16.67;;;11.30;;
70757;SDS011;59316;52.964;7.102;2022-10-26T21:05:22;27.98;;;12.57;;
70757;SDS011;59316;52.964;7.102;2022-10-26T21:10:25;25.10;;;12.93;;
70757;SDS011;59316;52.964;7.102;2022-10-26T21:15:30;24.63;;;12.52;;
70757;SDS011;59316;52.964;7.102;2022-10-26T21:20:32;25.67;;;12.25;;
70757;SDS011;59316;52.964;7.102;2022-10-26T21:25:35;22.03;;;12.27;;
70757;SDS011;59316;52.964;7.102;2022-10-26T21:30:47;20.58;;;10.88;;
70757;SDS011;59316;52.964;7.102;2022-10-26T21:35:52;22.30;;;12.02;;
70757;SDS011;59316;52.964;7.102;2022-10-26T21:46:07;21.50;;;11.38;;
70757;SDS011;59316;52.964;7.102;2022-10-26T21:51:17;23.30;;;11.95;;
70757;SDS011;59316;52.964;7.102;2022-10-26T21:56:21;20.52;;;11.35;;
70757;SDS011;59316;52.964;7.102;2022-10-26T22:01:23;25.20;;;11.97;;
70757;SDS011;59316;52.964;7.102;2022-10-26T22:06:26;25.58;;;11.63;;
70757;SDS011;59316;52.964;7.102;2022-10-26T22:11:28;22.60;;;11.67;;
70757;SDS011;59316;52.964;7.102;2022-10-26T22:16:31;20.00;;;11.48;;
70757;SDS011;59316;52.964;7.102;2022-10-26T22:21:38;26.00;;;11.35;;
70757;SDS011;59316;52.964;7.102;2022-10-26T22:26:42;25.13;;;11.90;;
70757;SDS011;59316;52.964;7.102;2022-10-26T22:31:44;26.17;;;11.77;;
70757;SDS011;59316;52.964;7.102;2022-10-26T22:36:46;22.30;;;11.17;;
70757;SDS011;59316;52.964;7.102;2022-10-26T22:41:49;23.63;;;11.07;;
70757;SDS011;59316;52.964;7.102;2022-10-26T22:46:51;21.50;;;10.83;;
70757;SDS011;59316;52.964;7.102;2022-10-26T22:51:54;25.33;;;11.30;;
70757;SDS011;59316;52.964;7.102;2022-10-26T22:56:56;18.17;;;10.17;;
70757;SDS011;59316;52.964;7.102;2022-10-26T23:01:58;19.03;;;9.63;;
70757;SDS011;59316;52.964;7.102;2022-10-26T23:07:01;21.63;;;10.67;;
70757;SDS011;59316;52.964;7.102;2022-10-26T23:12:03;23.23;;;10.97;;
70757;SDS011;59316;52.964;7.102;2022-10-26T23:17:06;26.97;;;10.50;;
70757;SDS011;59316;52.964;7.102;2022-10-26T23:22:08;18.57;;;9.53;;
70757;SDS011;59316;52.964;7.102;2022-10-26T23:27:10;22.73;;;10.93;;
70757;SDS011;59316;52.964;7.102;2022-10-26T23:32:13;20.97;;;10.27;;
70757;SDS011;59316;52.964;7.102;2022-10-26T23:37:15;29.20;;;11.50;;
70757;SDS011;59316;52.964;7.102;2022-10-26T23:42:17;19.70;;;10.20;;
70757;SDS011;59316;52.964;7.102;2022-10-26T23:47:20;24.60;;;10.60;;
70757;SDS011;59316;52.964;7.102;2022-10-26T23:52:22;23.13;;;9.70;;
70757;SDS011;59316;52.964;7.102;2022-10-26T23:57:25;32.90;;;10.80;;
